sensor_id;sensor_type;location;lat;lon;timestamp;P1;durP1;ratioP1;P2;durP2;ratioP2
12814;SDS011;6472;52.328;13.070;2022-09-20T00:01:27;3.23;;;0.77;;
12814;SDS011;6472;52.328;13.070;2022-09-20T00:03:59;1.10;;;1.00;;
12814;SDS011;6472;52.328;13.070;2022-09-20T00:06:32;0.73;;;0.73;;
12814;SDS011;6472;52.328;13.070;2022-09-20T00:09:02;1.60;;;0.90;;
12814;SDS011;6472;52.328;13.070;2022-09-20T00:11:31;3.30;;;0.70;;
12814;SDS011;6472;52.328;13.070;2022-09-20T00:14:03;0.70;;;0.70;;
12814;SDS011;6472;52.328;13.070;2022-09-20T00:16:35;3.80;;;0.80;;
12814;SDS011;6472;52.328;13.070;2022-09-20T00:19:05;2.20;;;1.13;;
12814;SDS011;6472;52.328;13.070;2022-09-20T00:21:36;0.90;;;0.83;;
12814;SDS011;6472;52.328;13.070;2022-09-20T00:24:04;1.90;;;0.90;;
12814;SDS011;6472;52.328;13.070;2022-09-20T00:26:32;0.57;;;0.50;;
12814;SDS011;6472;52.328;13.070;2022-09-20T00:29:00;0.80;;;0.80;;
12814;SDS011;6472;52.328;13.070;2022-09-20T00:31:28;1.07;;;0.80;;
12814;SDS011;6472;52.328;13.070;2022-09-20T00:33:57;0.70;;;0.70;;
12814;SDS011;6472;52.328;13.070;2022-09-20T00:36:44;0.97;;;0.50;;
12814;SDS011;6472;52.328;13.070;2022-09-20T00:39:13;0.80;;;0.80;;
12814;SDS011;6472;52.328;13.070;2022-09-20T00:41:42;0.80;;;0.80;;
12814;SDS011;6472;52.328;13.070;2022-09-20T00:47:30;1.03;;;0.70;;
12814;SDS011;6472;52.328;13.070;2022-09-20T00:50:05;0.50;;;0.50;;
12814;SDS011;6472;52.328;13.070;2022-09-20T00:52:42;3.80;;;1.00;;
12814;SDS011;6472;52.328;13.070;2022-09-20T00:55:14;1.40;;;0.90;;
12814;SDS011;6472;52.328;13.070;2022-09-20T00:57:43;2.30;;;0.93;;
12814;SDS011;6472;52.328;13.070;2022-09-20T01:00:13;1.37;;;0.73;;
12814;SDS011;6472;52.328;13.070;2022-09-20T01:02:42;2.33;;;0.67;;
12814;SDS011;6472;52.328;13.070;2022-09-20T01:05:14;3.30;;;0.87;;
12814;SDS011;6472;52.328;13.070;2022-09-20T01:07:45;0.80;;;0.80;;
12814;SDS011;6472;52.328;13.070;2022-09-20T01:10:14;0.67;;;0.60;;
12814;SDS011;6472;52.328;13.070;2022-09-20T01:12:43;1.00;;;0.70;;
12814;SDS011;6472;52.328;13.070;2022-09-20T01:15:12;4.10;;;1.03;;
12814;SDS011;6472;52.328;13.070;2022-09-20T01:17:42;0.93;;;0.83;;
12814;SDS011;6472;52.328;13.070;2022-09-20T01:20:15;3.13;;;1.07;;
12814;SDS011;6472;52.328;13.070;2022-09-20T01:22:54;1.10;;;0.80;;
12814;SDS011;6472;52.328;13.070;2022-09-20T01:28:34;0.70;;;0.70;;
12814;SDS011;6472;52.328;13.070;2022-09-20T01:31:05;0.67;;;0.67;;
12814;SDS011;6472;52.328;13.070;2022-09-20T01:33:38;0.97;;;0.97;;
12814;SDS011;6472;52.328;13.070;2022-09-20T01:36:12;0.70;;;0.70;;
12814;SDS011;6472;52.328;13.070;2022-09-20T01:38:45;1.00;;;0.90;;
12814;SDS011;6472;52.328;13.070;2022-09-20T01:41:22;1.03;;;0.90;;
12814;SDS011;6472;52.328;13.070;2022-09-20T01:43:57;0.80;;;0.80;;
12814;SDS011;6472;52.328;13.070;2022-09-20T01:46:33;1.00;;;1.00;;
12814;SDS011;6472;52.328;13.070;2022-09-20T01:49:06;3.30;;;1.00;;
12814;SDS011;6472;52.328;13.070;2022-09-20T01:51:51;1.20;;;1.10;;
12814;SDS011;6472;52.328;13.070;2022-09-20T01:58:06;2.23;;;1.10;;
12814;SDS011;6472;52.328;13.070;2022-09-20T02:01:07;1.20;;;1.10;;
12814;SDS011;6472;52.328;13.070;2022-09-20T02:03:58;1.10;;;1.00;;
12814;SDS011;6472;52.328;13.070;2022-09-20T02:06:46;0.87;;;0.63;;
12814;SDS011;6472;52.328;13.070;2022-09-20T02:09:32;2.00;;;1.07;;
12814;SDS011;6472;52.328;13.070;2022-09-20T02:15:05;2.00;;;1.40;;
12814;SDS011;6472;52.328;13.070;2022-09-20T02:17:42;2.13;;;1.07;;
12814;SDS011;6472;52.328;13.070;2022-09-20T02:20:21;1.50;;;1.23;;
12814;SDS011;6472;52.328;13.070;2022-09-20T02:23:10;1.67;;;1.23;;
12814;SDS011;6472;52.328;13.070;2022-09-20T02:25:57;0.90;;;0.90;;
12814;SDS011;6472;52.328;13.070;2022-09-20T02:28:38;1.17;;;1.07;;
12814;SDS011;6472;52.328;13.070;2022-09-20T02:31:21;1.17;;;1.10;;
12814;SDS011;6472;52.328;13.070;2022-09-20T02:34:08;2.93;;;1.07;;
12814;SDS011;6472;52.328;13.070;2022-09-20T02:36:54;0.73;;;0.70;;
12814;SDS011;6472;52.328;13.070;2022-09-20T02:39:36;2.67;;;0.70;;
12814;SDS011;6472;52.328;13.070;2022-09-20T02:42:14;1.80;;;1.30;;
12814;SDS011;6472;52.328;13.070;2022-09-20T02:44:51;3.40;;;1.30;;
12814;SDS011;6472;52.328;13.070;2022-09-20T02:47:29;1.00;;;0.90;;
12814;SDS011;6472;52.328;13.070;2022-09-20T02:50:12;2.37;;;1.40;;
12814;SDS011;6472;52.328;13.070;2022-09-20T02:52:50;1.03;;;1.03;;
12814;SDS011;6472;52.328;13.070;2022-09-20T02:55:33;1.00;;;0.90;;
12814;SDS011;6472;52.328;13.070;2022-09-20T02:58:10;1.17;;;1.07;;
12814;SDS011;6472;52.328;13.070;2022-09-20T03:00:52;1.70;;;1.30;;
12814;SDS011;6472;52.328;13.070;2022-09-20T03:03:30;3.03;;;1.87;;
12814;SDS011;6472;52.328;13.070;2022-09-20T03:06:10;3.80;;;1.30;;
12814;SDS011;6472;52.328;13.070;2022-09-20T03:08:46;1.73;;;1.63;;
12814;SDS011;6472;52.328;13.070;2022-09-20T03:11:24;1.70;;;1.17;;
12814;SDS011;6472;52.328;13.070;2022-09-20T03:14:03;1.53;;;1.43;;
12814;SDS011;6472;52.328;13.070;2022-09-20T03:16:42;6.27;;;1.50;;
12814;SDS011;6472;52.328;13.070;2022-09-20T03:19:23;2.40;;;1.80;;
12814;SDS011;6472;52.328;13.070;2022-09-20T03:22:03;3.83;;;1.67;;
12814;SDS011;6472;52.328;13.070;2022-09-20T03:24:42;1.40;;;1.30;;
12814;SDS011;6472;52.328;13.070;2022-09-20T03:27:27;1.90;;;1.80;;
12814;SDS011;6472;52.328;13.070;2022-09-20T03:30:02;1.33;;;1.23;;
12814;SDS011;6472;52.328;13.070;2022-09-20T03:32:44;5.53;;;2.13;;
12814;SDS011;6472;52.328;13.070;2022-09-20T03:35:25;2.40;;;1.87;;
12814;SDS011;6472;52.328;13.070;2022-09-20T03:38:09;3.57;;;1.20;;
12814;SDS011;6472;52.328;13.070;2022-09-20T03:41:10;1.83;;;1.20;;
12814;SDS011;6472;52.328;13.070;2022-09-20T03:43:54;3.57;;;1.83;;
12814;SDS011;6472;52.328;13.070;2022-09-20T03:46:36;1.97;;;1.77;;
12814;SDS011;6472;52.328;13.070;2022-09-20T03:49:32;1.73;;;1.53;;
12814;SDS011;6472;52.328;13.070;2022-09-20T03:52:28;1.83;;;1.23;;
12814;SDS011;6472;52.328;13.070;2022-09-20T03:58:18;4.27;;;1.37;;
12814;SDS011;6472;52.328;13.070;2022-09-20T04:01:00;1.60;;;1.50;;
12814;SDS011;6472;52.328;13.070;2022-09-20T04:03:43;1.33;;;1.23;;
12814;SDS011;6472;52.328;13.070;2022-09-20T04:09:24;1.73;;;1.20;;
12814;SDS011;6472;52.328;13.070;2022-09-20T04:12:16;4.70;;;1.40;;
12814;SDS011;6472;52.328;13.070;2022-09-20T04:14:56;5.57;;;1.83;;
12814;SDS011;6472;52.328;13.070;2022-09-20T04:17:35;3.97;;;1.77;;
12814;SDS011;6472;52.328;13.070;2022-09-20T04:20:12;4.07;;;1.73;;
12814;SDS011;6472;52.328;13.070;2022-09-20T04:22:46;6.97;;;1.90;;
12814;SDS011;6472;52.328;13.070;2022-09-20T04:25:18;2.97;;;1.87;;
12814;SDS011;6472;52.328;13.070;2022-09-20T04:27:51;3.47;;;1.53;;
12814;SDS011;6472;52.328;13.070;2022-09-20T04:30:25;2.40;;;1.80;;
12814;SDS011;6472;52.328;13.070;2022-09-20T04:32:57;2.47;;;2.23;;
12814;SDS011;6472;52.328;13.070;2022-09-20T04:35:32;1.70;;;1.60;;
12814;SDS011;6472;52.328;13.070;2022-09-20T04:38:23;4.40;;;1.57;;
12814;SDS011;6472;52.328;13.070;2022-09-20T04:40:58;6.70;;;1.80;;
12814;SDS011;6472;52.328;13.070;2022-09-20T04:44:01;2.87;;;1.53;;
12814;SDS011;6472;52.328;13.070;2022-09-20T04:46:50;2.67;;;1.90;;
12814;SDS011;6472;52.328;13.070;2022-09-20T04:49:48;3.23;;;2.03;;
12814;SDS011;6472;52.328;13.070;2022-09-20T04:52:41;3.83;;;1.97;;
12814;SDS011;6472;52.328;13.070;2022-09-20T04:55:38;3.60;;;2.47;;
12814;SDS011;6472;52.328;13.070;2022-09-20T04:58:31;2.73;;;1.80;;
12814;SDS011;6472;52.328;13.070;2022-09-20T05:01:21;2.20;;;2.00;;
12814;SDS011;6472;52.328;13.070;2022-09-20T05:07:50;1.60;;;1.50;;
12814;SDS011;6472;52.328;13.070;2022-09-20T05:10:51;3.00;;;2.07;;
12814;SDS011;6472;52.328;13.070;2022-09-20T05:13:38;2.57;;;1.73;;
12814;SDS011;6472;52.328;13.070;2022-09-20T05:16:24;2.50;;;1.53;;
12814;SDS011;6472;52.328;13.070;2022-09-20T05:19:12;2.93;;;1.70;;
12814;SDS011;6472;52.328;13.070;2022-09-20T05:22:11;7.03;;;2.37;;
12814;SDS011;6472;52.328;13.070;2022-09-20T05:33:03;2.97;;;1.80;;
12814;SDS011;6472;52.328;13.070;2022-09-20T05:35:43;1.93;;;1.57;;
12814;SDS011;6472;52.328;13.070;2022-09-20T05:38:22;2.43;;;1.33;;
12814;SDS011;6472;52.328;13.070;2022-09-20T05:41:05;2.00;;;1.80;;
12814;SDS011;6472;52.328;13.070;2022-09-20T05:43:47;5.97;;;2.20;;
12814;SDS011;6472;52.328;13.070;2022-09-20T05:46:30;4.83;;;2.20;;
12814;SDS011;6472;52.328;13.070;2022-09-20T05:49:06;3.67;;;1.90;;
12814;SDS011;6472;52.328;13.070;2022-09-20T05:51:46;4.07;;;2.47;;
12814;SDS011;6472;52.328;13.070;2022-09-20T05:54:23;2.87;;;2.37;;
12814;SDS011;6472;52.328;13.070;2022-09-20T05:57:06;5.80;;;2.37;;
12814;SDS011;6472;52.328;13.070;2022-09-20T05:59:46;2.83;;;2.03;;
12814;SDS011;6472;52.328;13.070;2022-09-20T06:02:32;4.03;;;2.70;;
12814;SDS011;6472;52.328;13.070;2022-09-20T06:05:09;5.33;;;2.50;;
12814;SDS011;6472;52.328;13.070;2022-09-20T06:08:00;3.73;;;3.03;;
12814;SDS011;6472;52.328;13.070;2022-09-20T06:10:44;5.57;;;3.07;;
12814;SDS011;6472;52.328;13.070;2022-09-20T06:13:49;6.13;;;3.17;;
12814;SDS011;6472;52.328;13.070;2022-09-20T06:16:31;5.00;;;2.87;;
12814;SDS011;6472;52.328;13.070;2022-09-20T06:19:10;7.70;;;4.70;;
12814;SDS011;6472;52.328;13.070;2022-09-20T06:21:48;7.97;;;3.40;;
12814;SDS011;6472;52.328;13.070;2022-09-20T06:24:22;7.47;;;3.77;;
12814;SDS011;6472;52.328;13.070;2022-09-20T06:26:55;4.33;;;3.87;;
12814;SDS011;6472;52.328;13.070;2022-09-20T06:29:35;3.70;;;3.40;;
12814;SDS011;6472;52.328;13.070;2022-09-20T06:32:09;4.23;;;3.40;;
12814;SDS011;6472;52.328;13.070;2022-09-20T06:34:39;7.03;;;3.90;;
12814;SDS011;6472;52.328;13.070;2022-09-20T06:37:23;5.23;;;4.00;;
12814;SDS011;6472;52.328;13.070;2022-09-20T06:40:31;6.83;;;3.50;;
12814;SDS011;6472;52.328;13.070;2022-09-20T06:43:23;7.70;;;3.90;;
12814;SDS011;6472;52.328;13.070;2022-09-20T06:45:54;7.57;;;3.73;;
12814;SDS011;6472;52.328;13.070;2022-09-20T06:48:25;4.47;;;3.30;;
12814;SDS011;6472;52.328;13.070;2022-09-20T06:50:59;8.50;;;4.37;;
12814;SDS011;6472;52.328;13.070;2022-09-20T06:53:30;7.97;;;3.87;;
12814;SDS011;6472;52.328;13.070;2022-09-20T06:56:19;8.10;;;3.93;;
12814;SDS011;6472;52.328;13.070;2022-09-20T06:58:51;8.70;;;4.47;;
12814;SDS011;6472;52.328;13.070;2022-09-20T07:01:20;10.13;;;4.17;;
12814;SDS011;6472;52.328;13.070;2022-09-20T07:03:55;7.37;;;4.23;;
12814;SDS011;6472;52.328;13.070;2022-09-20T07:06:26;10.13;;;4.57;;
12814;SDS011;6472;52.328;13.070;2022-09-20T07:08:56;12.23;;;5.00;;
12814;SDS011;6472;52.328;13.070;2022-09-20T07:11:24;5.27;;;3.83;;
12814;SDS011;6472;52.328;13.070;2022-09-20T07:13:53;6.83;;;4.07;;
12814;SDS011;6472;52.328;13.070;2022-09-20T07:16:24;8.90;;;4.20;;
12814;SDS011;6472;52.328;13.070;2022-09-20T07:18:53;7.40;;;3.97;;
12814;SDS011;6472;52.328;13.070;2022-09-20T07:21:23;6.23;;;4.17;;
12814;SDS011;6472;52.328;13.070;2022-09-20T07:23:51;8.13;;;3.70;;
12814;SDS011;6472;52.328;13.070;2022-09-20T07:26:22;4.80;;;3.93;;
12814;SDS011;6472;52.328;13.070;2022-09-20T07:28:52;4.53;;;3.77;;
12814;SDS011;6472;52.328;13.070;2022-09-20T07:31:21;7.67;;;4.57;;
12814;SDS011;6472;52.328;13.070;2022-09-20T07:33:52;10.50;;;5.50;;
12814;SDS011;6472;52.328;13.070;2022-09-20T07:36:21;12.87;;;5.33;;
12814;SDS011;6472;52.328;13.070;2022-09-20T07:38:49;9.87;;;4.77;;
12814;SDS011;6472;52.328;13.070;2022-09-20T07:41:19;9.53;;;4.97;;
12814;SDS011;6472;52.328;13.070;2022-09-20T07:44:03;8.10;;;5.40;;
12814;SDS011;6472;52.328;13.070;2022-09-20T07:46:46;9.73;;;5.13;;
12814;SDS011;6472;52.328;13.070;2022-09-20T07:49:18;12.53;;;6.10;;
12814;SDS011;6472;52.328;13.070;2022-09-20T07:51:47;8.40;;;5.00;;
12814;SDS011;6472;52.328;13.070;2022-09-20T07:54:16;11.00;;;4.63;;
12814;SDS011;6472;52.328;13.070;2022-09-20T07:56:45;14.90;;;5.70;;
12814;SDS011;6472;52.328;13.070;2022-09-20T07:59:14;9.03;;;5.97;;
12814;SDS011;6472;52.328;13.070;2022-09-20T08:01:42;8.83;;;5.70;;
12814;SDS011;6472;52.328;13.070;2022-09-20T08:04:11;11.83;;;5.83;;
12814;SDS011;6472;52.328;13.070;2022-09-20T08:06:44;11.70;;;6.00;;
12814;SDS011;6472;52.328;13.070;2022-09-20T08:09:14;11.33;;;7.00;;
12814;SDS011;6472;52.328;13.070;2022-09-20T08:15:25;7.60;;;5.93;;
12814;SDS011;6472;52.328;13.070;2022-09-20T08:17:54;13.13;;;6.50;;
12814;SDS011;6472;52.328;13.070;2022-09-20T08:20:22;9.63;;;6.40;;
12814;SDS011;6472;52.328;13.070;2022-09-20T08:22:50;13.23;;;5.70;;
12814;SDS011;6472;52.328;13.070;2022-09-20T08:25:40;10.80;;;6.13;;
12814;SDS011;6472;52.328;13.070;2022-09-20T08:28:08;12.07;;;7.07;;
12814;SDS011;6472;52.328;13.070;2022-09-20T08:30:37;11.97;;;6.50;;
12814;SDS011;6472;52.328;13.070;2022-09-20T08:33:05;11.27;;;6.40;;
12814;SDS011;6472;52.328;13.070;2022-09-20T08:35:34;10.77;;;5.77;;
12814;SDS011;6472;52.328;13.070;2022-09-20T08:38:04;12.50;;;5.50;;
12814;SDS011;6472;52.328;13.070;2022-09-20T08:40:53;9.10;;;5.83;;
12814;SDS011;6472;52.328;13.070;2022-09-20T08:43:24;10.83;;;5.57;;
12814;SDS011;6472;52.328;13.070;2022-09-20T08:45:57;5.67;;;4.73;;
12814;SDS011;6472;52.328;13.070;2022-09-20T08:48:31;5.97;;;4.73;;
12814;SDS011;6472;52.328;13.070;2022-09-20T08:51:00;7.17;;;5.00;;
12814;SDS011;6472;52.328;13.070;2022-09-20T08:53:31;5.80;;;4.40;;
12814;SDS011;6472;52.328;13.070;2022-09-20T08:56:00;9.77;;;4.53;;
12814;SDS011;6472;52.328;13.070;2022-09-20T08:58:32;6.53;;;4.73;;
12814;SDS011;6472;52.328;13.070;2022-09-20T09:01:02;8.23;;;4.90;;
12814;SDS011;6472;52.328;13.070;2022-09-20T09:03:30;13.53;;;5.63;;
12814;SDS011;6472;52.328;13.070;2022-09-20T09:06:01;11.47;;;4.90;;
12814;SDS011;6472;52.328;13.070;2022-09-20T09:08:36;7.03;;;4.50;;
12814;SDS011;6472;52.328;13.070;2022-09-20T09:11:06;6.70;;;4.13;;
12814;SDS011;6472;52.328;13.070;2022-09-20T09:13:38;7.90;;;5.07;;
12814;SDS011;6472;52.328;13.070;2022-09-20T09:16:13;6.50;;;4.23;;
12814;SDS011;6472;52.328;13.070;2022-09-20T09:18:51;8.80;;;3.73;;
12814;SDS011;6472;52.328;13.070;2022-09-20T09:21:21;8.60;;;4.10;;
12814;SDS011;6472;52.328;13.070;2022-09-20T09:23:51;6.93;;;4.20;;
12814;SDS011;6472;52.328;13.070;2022-09-20T09:26:26;6.60;;;3.80;;
12814;SDS011;6472;52.328;13.070;2022-09-20T09:31:51;7.33;;;4.10;;
12814;SDS011;6472;52.328;13.070;2022-09-20T09:34:21;6.63;;;3.27;;
12814;SDS011;6472;52.328;13.070;2022-09-20T09:36:51;4.43;;;2.67;;
12814;SDS011;6472;52.328;13.070;2022-09-20T09:39:24;5.27;;;3.37;;
12814;SDS011;6472;52.328;13.070;2022-09-20T09:41:54;6.90;;;3.27;;
12814;SDS011;6472;52.328;13.070;2022-09-20T09:44:26;4.03;;;2.73;;
12814;SDS011;6472;52.328;13.070;2022-09-20T09:46:59;5.60;;;3.23;;
12814;SDS011;6472;52.328;13.070;2022-09-20T09:49:28;4.90;;;3.40;;
12814;SDS011;6472;52.328;13.070;2022-09-20T09:52:01;7.00;;;3.47;;
12814;SDS011;6472;52.328;13.070;2022-09-20T09:54:32;6.83;;;3.07;;
12814;SDS011;6472;52.328;13.070;2022-09-20T09:57:09;4.07;;;3.50;;
12814;SDS011;6472;52.328;13.070;2022-09-20T09:59:52;4.30;;;3.40;;
12814;SDS011;6472;52.328;13.070;2022-09-20T10:02:52;4.10;;;2.67;;
12814;SDS011;6472;52.328;13.070;2022-09-20T10:05:43;6.03;;;4.33;;
12814;SDS011;6472;52.328;13.070;2022-09-20T10:08:28;8.43;;;4.70;;
12814;SDS011;6472;52.328;13.070;2022-09-20T10:11:06;8.13;;;4.43;;
12814;SDS011;6472;52.328;13.070;2022-09-20T10:13:42;8.03;;;4.17;;
12814;SDS011;6472;52.328;13.070;2022-09-20T10:16:19;8.63;;;4.50;;
12814;SDS011;6472;52.328;13.070;2022-09-20T10:18:58;8.10;;;5.37;;
12814;SDS011;6472;52.328;13.070;2022-09-20T10:21:36;7.83;;;4.67;;
12814;SDS011;6472;52.328;13.070;2022-09-20T10:24:13;9.57;;;5.63;;
12814;SDS011;6472;52.328;13.070;2022-09-20T10:27:07;7.53;;;4.67;;
12814;SDS011;6472;52.328;13.070;2022-09-20T10:29:46;5.30;;;4.43;;
12814;SDS011;6472;52.328;13.070;2022-09-20T10:32:27;7.97;;;4.57;;
12814;SDS011;6472;52.328;13.070;2022-09-20T10:35:14;4.90;;;3.90;;
12814;SDS011;6472;52.328;13.070;2022-09-20T10:37:52;7.47;;;3.63;;
12814;SDS011;6472;52.328;13.070;2022-09-20T10:40:33;5.53;;;3.47;;
12814;SDS011;6472;52.328;13.070;2022-09-20T10:43:26;9.73;;;3.97;;
12814;SDS011;6472;52.328;13.070;2022-09-20T10:46:11;9.17;;;3.57;;
12814;SDS011;6472;52.328;13.070;2022-09-20T10:49:04;6.77;;;3.77;;
12814;SDS011;6472;52.328;13.070;2022-09-20T10:51:49;6.90;;;3.27;;
12814;SDS011;6472;52.328;13.070;2022-09-20T10:54:30;4.67;;;3.10;;
12814;SDS011;6472;52.328;13.070;2022-09-20T10:57:11;4.70;;;2.93;;
12814;SDS011;6472;52.328;13.070;2022-09-20T10:59:52;4.53;;;3.27;;
12814;SDS011;6472;52.328;13.070;2022-09-20T11:02:34;7.27;;;3.70;;
12814;SDS011;6472;52.328;13.070;2022-09-20T11:05:15;4.50;;;3.60;;
12814;SDS011;6472;52.328;13.070;2022-09-20T11:07:57;8.77;;;3.83;;
12814;SDS011;6472;52.328;13.070;2022-09-20T11:10:32;5.47;;;3.37;;
12814;SDS011;6472;52.328;13.070;2022-09-20T11:13:06;5.93;;;3.77;;
12814;SDS011;6472;52.328;13.070;2022-09-20T11:15:42;7.30;;;3.57;;
12814;SDS011;6472;52.328;13.070;2022-09-20T11:18:16;5.27;;;4.10;;
12814;SDS011;6472;52.328;13.070;2022-09-20T11:20:50;3.00;;;2.47;;
12814;SDS011;6472;52.328;13.070;2022-09-20T11:23:28;3.23;;;2.80;;
12814;SDS011;6472;52.328;13.070;2022-09-20T11:26:04;7.13;;;3.33;;
12814;SDS011;6472;52.328;13.070;2022-09-20T11:28:38;5.90;;;3.10;;
12814;SDS011;6472;52.328;13.070;2022-09-20T11:31:13;7.20;;;2.57;;
12814;SDS011;6472;52.328;13.070;2022-09-20T11:33:47;2.43;;;1.90;;
12814;SDS011;6472;52.328;13.070;2022-09-20T11:36:20;5.90;;;2.43;;
12814;SDS011;6472;52.328;13.070;2022-09-20T11:38:53;5.00;;;2.73;;
12814;SDS011;6472;52.328;13.070;2022-09-20T11:41:25;3.33;;;2.50;;
12814;SDS011;6472;52.328;13.070;2022-09-20T11:43:55;5.67;;;2.63;;
12814;SDS011;6472;52.328;13.070;2022-09-20T11:46:28;5.90;;;2.57;;
12814;SDS011;6472;52.328;13.070;2022-09-20T11:49:00;2.80;;;2.27;;
12814;SDS011;6472;52.328;13.070;2022-09-20T11:54:40;3.07;;;2.07;;
12814;SDS011;6472;52.328;13.070;2022-09-20T12:00:27;2.40;;;1.77;;
12814;SDS011;6472;52.328;13.070;2022-09-20T12:02:57;2.73;;;1.47;;
12814;SDS011;6472;52.328;13.070;2022-09-20T12:05:28;4.37;;;1.80;;
12814;SDS011;6472;52.328;13.070;2022-09-20T12:07:59;3.90;;;2.23;;
12814;SDS011;6472;52.328;13.070;2022-09-20T12:10:31;1.73;;;1.43;;
12814;SDS011;6472;52.328;13.070;2022-09-20T12:13:03;2.63;;;1.23;;
12814;SDS011;6472;52.328;13.070;2022-09-20T12:15:34;1.70;;;1.43;;
12814;SDS011;6472;52.328;13.070;2022-09-20T12:21:14;2.93;;;1.47;;
12814;SDS011;6472;52.328;13.070;2022-09-20T12:26:46;1.33;;;1.10;;
12814;SDS011;6472;52.328;13.070;2022-09-20T12:32:33;1.83;;;1.50;;
12814;SDS011;6472;52.328;13.070;2022-09-20T12:41:16;2.00;;;1.27;;
12814;SDS011;6472;52.328;13.070;2022-09-20T12:43:56;1.50;;;1.40;;
12814;SDS011;6472;52.328;13.070;2022-09-20T12:46:31;1.07;;;0.93;;
12814;SDS011;6472;52.328;13.070;2022-09-20T12:52:25;1.63;;;1.10;;
12814;SDS011;6472;52.328;13.070;2022-09-20T12:55:25;1.20;;;1.10;;
12814;SDS011;6472;52.328;13.070;2022-09-20T12:58:00;2.43;;;1.43;;
12814;SDS011;6472;52.328;13.070;2022-09-20T13:00:32;1.20;;;1.07;;
12814;SDS011;6472;52.328;13.070;2022-09-20T13:03:11;1.23;;;0.97;;
12814;SDS011;6472;52.328;13.070;2022-09-20T13:05:50;1.87;;;1.40;;
12814;SDS011;6472;52.328;13.070;2022-09-20T13:08:54;3.23;;;2.37;;
12814;SDS011;6472;52.328;13.070;2022-09-20T13:11:29;1.70;;;1.10;;
12814;SDS011;6472;52.328;13.070;2022-09-20T13:14:01;0.90;;;0.90;;
12814;SDS011;6472;52.328;13.070;2022-09-20T13:16:36;1.33;;;0.93;;
12814;SDS011;6472;52.328;13.070;2022-09-20T13:19:13;1.30;;;0.70;;
12814;SDS011;6472;52.328;13.070;2022-09-20T13:21:48;0.33;;;0.33;;
12814;SDS011;6472;52.328;13.070;2022-09-20T13:24:20;0.47;;;0.23;;
12814;SDS011;6472;52.328;13.070;2022-09-20T13:26:51;0.30;;;0.10;;
12814;SDS011;6472;52.328;13.070;2022-09-20T13:29:21;0.40;;;0.33;;
12814;SDS011;6472;52.328;13.070;2022-09-20T13:31:55;0.70;;;0.50;;
12814;SDS011;6472;52.328;13.070;2022-09-20T13:34:40;0.20;;;0.20;;
12814;SDS011;6472;52.328;13.070;2022-09-20T13:37:12;1.83;;;0.40;;
12814;SDS011;6472;52.328;13.070;2022-09-20T13:39:46;0.90;;;0.40;;
12814;SDS011;6472;52.328;13.070;2022-09-20T13:42:20;2.13;;;0.30;;
12814;SDS011;6472;52.328;13.070;2022-09-20T13:44:48;0.30;;;0.30;;
12814;SDS011;6472;52.328;13.070;2022-09-20T13:47:21;0.33;;;0.33;;
12814;SDS011;6472;52.328;13.070;2022-09-20T13:49:50;0.40;;;0.40;;
12814;SDS011;6472;52.328;13.070;2022-09-20T13:52:23;0.40;;;0.40;;
12814;SDS011;6472;52.328;13.070;2022-09-20T13:54:53;0.30;;;0.30;;
12814;SDS011;6472;52.328;13.070;2022-09-20T13:57:23;1.93;;;0.40;;
12814;SDS011;6472;52.328;13.070;2022-09-20T13:59:54;0.50;;;0.40;;
12814;SDS011;6472;52.328;13.070;2022-09-20T14:02:25;0.50;;;0.20;;
12814;SDS011;6472;52.328;13.070;2022-09-20T14:04:56;0.30;;;0.30;;
12814;SDS011;6472;52.328;13.070;2022-09-20T14:07:28;0.40;;;0.40;;
12814;SDS011;6472;52.328;13.070;2022-09-20T14:09:57;0.30;;;0.30;;
12814;SDS011;6472;52.328;13.070;2022-09-20T14:12:25;0.40;;;0.40;;
12814;SDS011;6472;52.328;13.070;2022-09-20T14:14:54;0.83;;;0.40;;
12814;SDS011;6472;52.328;13.070;2022-09-20T14:17:23;0.60;;;0.60;;
12814;SDS011;6472;52.328;13.070;2022-09-20T14:19:52;0.83;;;0.43;;
12814;SDS011;6472;52.328;13.070;2022-09-20T14:22:23;0.67;;;0.67;;
12814;SDS011;6472;52.328;13.070;2022-09-20T14:25:01;1.97;;;0.93;;
12814;SDS011;6472;52.328;13.070;2022-09-20T14:27:44;0.93;;;0.73;;
12814;SDS011;6472;52.328;13.070;2022-09-20T14:30:28;1.30;;;1.10;;
12814;SDS011;6472;52.328;13.070;2022-09-20T14:32:57;0.83;;;0.83;;
12814;SDS011;6472;52.328;13.070;2022-09-20T14:35:25;0.93;;;0.83;;
12814;SDS011;6472;52.328;13.070;2022-09-20T14:37:54;0.60;;;0.60;;
12814;SDS011;6472;52.328;13.070;2022-09-20T14:40:26;1.07;;;0.60;;
12814;SDS011;6472;52.328;13.070;2022-09-20T14:42:57;1.77;;;0.60;;
12814;SDS011;6472;52.328;13.070;2022-09-20T14:45:28;2.00;;;0.60;;
12814;SDS011;6472;52.328;13.070;2022-09-20T14:47:59;0.73;;;0.70;;
12814;SDS011;6472;52.328;13.070;2022-09-20T14:50:36;1.00;;;0.93;;
12814;SDS011;6472;52.328;13.070;2022-09-20T14:56:05;1.60;;;1.33;;
12814;SDS011;6472;52.328;13.070;2022-09-20T15:01:29;2.00;;;1.63;;
12814;SDS011;6472;52.328;13.070;2022-09-20T15:04:04;1.50;;;1.33;;
12814;SDS011;6472;52.328;13.070;2022-09-20T15:06:34;1.70;;;1.60;;
12814;SDS011;6472;52.328;13.070;2022-09-20T15:09:04;2.83;;;1.43;;
12814;SDS011;6472;52.328;13.070;2022-09-20T15:11:34;0.80;;;0.80;;
12814;SDS011;6472;52.328;13.070;2022-09-20T15:14:02;1.40;;;0.60;;
12814;SDS011;6472;52.328;13.070;2022-09-20T15:16:30;1.90;;;0.90;;
12814;SDS011;6472;52.328;13.070;2022-09-20T15:18:59;0.93;;;0.80;;
12814;SDS011;6472;52.328;13.070;2022-09-20T15:21:27;0.40;;;0.40;;
12814;SDS011;6472;52.328;13.070;2022-09-20T15:23:56;0.90;;;0.80;;
12814;SDS011;6472;52.328;13.070;2022-09-20T15:26:24;0.93;;;0.93;;
12814;SDS011;6472;52.328;13.070;2022-09-20T15:28:53;1.13;;;1.03;;
12814;SDS011;6472;52.328;13.070;2022-09-20T15:31:21;0.60;;;0.60;;
12814;SDS011;6472;52.328;13.070;2022-09-20T15:33:50;5.30;;;0.80;;
12814;SDS011;6472;52.328;13.070;2022-09-20T15:36:18;1.03;;;0.90;;
12814;SDS011;6472;52.328;13.070;2022-09-20T15:38:46;0.80;;;0.80;;
12814;SDS011;6472;52.328;13.070;2022-09-20T15:41:14;1.23;;;0.80;;
12814;SDS011;6472;52.328;13.070;2022-09-20T15:43:42;0.87;;;0.87;;
12814;SDS011;6472;52.328;13.070;2022-09-20T15:46:18;0.80;;;0.80;;
12814;SDS011;6472;52.328;13.070;2022-09-20T15:48:48;0.97;;;0.80;;
12814;SDS011;6472;52.328;13.070;2022-09-20T15:51:16;1.07;;;1.00;;
12814;SDS011;6472;52.328;13.070;2022-09-20T15:53:44;0.80;;;0.80;;
12814;SDS011;6472;52.328;13.070;2022-09-20T15:56:15;0.93;;;0.93;;
12814;SDS011;6472;52.328;13.070;2022-09-20T15:58:47;1.03;;;1.03;;
12814;SDS011;6472;52.328;13.070;2022-09-20T16:01:17;0.60;;;0.60;;
12814;SDS011;6472;52.328;13.070;2022-09-20T16:03:45;1.07;;;1.00;;
12814;SDS011;6472;52.328;13.070;2022-09-20T16:06:16;1.37;;;1.00;;
12814;SDS011;6472;52.328;13.070;2022-09-20T16:08:44;1.23;;;1.17;;
12814;SDS011;6472;52.328;13.070;2022-09-20T16:11:13;0.93;;;0.93;;
12814;SDS011;6472;52.328;13.070;2022-09-20T16:13:51;0.83;;;0.83;;
12814;SDS011;6472;52.328;13.070;2022-09-20T16:16:21;0.83;;;0.83;;
12814;SDS011;6472;52.328;13.070;2022-09-20T16:18:50;1.47;;;0.90;;
12814;SDS011;6472;52.328;13.070;2022-09-20T16:21:36;0.93;;;0.93;;
12814;SDS011;6472;52.328;13.070;2022-09-20T16:24:05;1.13;;;1.10;;
12814;SDS011;6472;52.328;13.070;2022-09-20T16:26:34;1.10;;;0.93;;
12814;SDS011;6472;52.328;13.070;2022-09-20T16:29:03;0.87;;;0.87;;
12814;SDS011;6472;52.328;13.070;2022-09-20T16:31:35;1.23;;;1.10;;
12814;SDS011;6472;52.328;13.070;2022-09-20T16:34:06;2.23;;;1.17;;
12814;SDS011;6472;52.328;13.070;2022-09-20T16:36:38;1.23;;;1.13;;
12814;SDS011;6472;52.328;13.070;2022-09-20T16:39:08;1.57;;;1.47;;
12814;SDS011;6472;52.328;13.070;2022-09-20T16:41:37;2.03;;;1.57;;
12814;SDS011;6472;52.328;13.070;2022-09-20T16:44:05;1.50;;;1.30;;
12814;SDS011;6472;52.328;13.070;2022-09-20T16:46:35;1.57;;;1.47;;
12814;SDS011;6472;52.328;13.070;2022-09-20T16:49:04;1.50;;;1.40;;